Accueil
METAR-TAF:

METAR-TAF

Aéroports :

Aéroport de Mannheim

Mannheim, Allemagne

latitude: 49-28-21N, longitude: 008-30-56E, altitude: 100 m

Observation

Le bulletin a été fait il y a 2 heures et 8 minutes, à 20:50 UTC
Vent 8 kt de ouest/sud-ouest
Température 13°C
Humidité 58%
Pression 1024 hPa
Visibilité 10 km ou plus
Nuages épars à une hauteur de 3600 ft
Nuages fragmentés à une hauteur de 5200 ft

METAR: EDFM 232050Z 24008KT 9999 SCT036 BKN052 13/05 Q1024

Heure: 00:58 (22:58 UTC)

Prévision

Le bulletin a été fait il y a 5 heures et 58 minutes, à 17:00 UTC
Prévision valable du 23 à 18 UTC au 23 à 21 UTC
Vent 10 kt de ouest/sud-ouest
Visibilité 10 km ou plus
Nuages fragmentés à une hauteur de 3500 ft

TAF: EDFM 231700Z 2318/2321 24010KT 9999 BKN035

Observations et prévisions météorologiques de plus de 4000 aéroports (messages METAR et TAF).

Les stations disponibles sont représentées par des disques jaunes et rouges sur la carte.

Passer la souris dessus pour voir le nom de la station.

Cliquer dessus pour voir les observations et prévisions météorologiques.

Pour changer de carte: cliquez sur les boutons verts avec une croix noire pour zoomer, sur le bouton vert avec un tiret pour effectuer un zoom arrière, ou sur les flèches vertes pour les cartes adjacentes.


METAR-TAF: